createdAt,value
2022-10-12T00:00:33.745Z,16.80
2022-10-12T00:03:40.710Z,15.87
2022-10-12T00:06:46.759Z,16.53
2022-10-12T00:09:54.150Z,15.90
2022-10-12T00:12:59.711Z,15.27
2022-10-12T00:16:12.306Z,15.33
2022-10-12T00:19:17.923Z,15.40
2022-10-12T00:22:24.352Z,16.67
2022-10-12T00:25:30.298Z,16.07
2022-10-12T00:28:38.356Z,16.30
2022-10-12T00:31:46.773Z,18.13
2022-10-12T00:34:53.185Z,18.00
2022-10-12T00:37:59.379Z,19.27
2022-10-12T00:41:06.828Z,19.03
2022-10-12T00:44:42.284Z,19.00
2022-10-12T00:47:54.923Z,18.17
2022-10-12T00:51:04.067Z,16.50
2022-10-12T00:54:15.358Z,17.47
2022-10-12T00:57:22.842Z,17.40
2022-10-12T01:00:29.796Z,16.77
2022-10-12T01:03:38.940Z,18.00
2022-10-12T01:06:45.471Z,17.43
2022-10-12T01:09:51.841Z,18.63
2022-10-12T01:12:58.310Z,18.33
2022-10-12T01:16:11.337Z,18.40
2022-10-12T01:19:40.124Z,18.27
2022-10-12T01:22:52.137Z,18.90
2022-10-12T01:26:11.609Z,19.00
2022-10-12T01:29:34.616Z,20.23
2022-10-12T01:33:03.337Z,19.30
2022-10-12T01:36:16.702Z,20.47
2022-10-12T01:39:30.803Z,19.53
2022-10-12T01:42:41.072Z,19.07
2022-10-12T01:45:47.503Z,20.17
2022-10-12T01:49:00.167Z,21.53
2022-10-12T01:52:30.358Z,20.97
2022-10-12T01:55:52.579Z,20.50
2022-10-12T01:59:08.591Z,20.30
2022-10-12T02:02:22.495Z,21.47
2022-10-12T02:05:41.478Z,24.30
2022-10-12T02:08:53.229Z,24.10
2022-10-12T02:12:06.411Z,25.27
2022-10-12T02:15:14.755Z,23.00
2022-10-12T02:18:23.410Z,22.33
2022-10-12T02:21:34.322Z,24.77
2022-10-12T02:24:44.155Z,22.37
2022-10-12T02:27:55.080Z,23.30
2022-10-12T02:31:10.185Z,23.97
2022-10-12T02:34:19.552Z,25.60
2022-10-12T02:37:38.154Z,24.83
2022-10-12T02:40:49.801Z,25.23
2022-10-12T02:44:00.412Z,24.90
2022-10-12T02:47:11.366Z,24.23
2022-10-12T02:50:21.624Z,24.37
2022-10-12T02:53:33.227Z,24.77
2022-10-12T02:56:47.222Z,25.07
2022-10-12T02:59:52.886Z,24.63
2022-10-12T03:02:59.309Z,23.67
2022-10-12T03:06:07.457Z,24.23
2022-10-12T03:09:16.993Z,24.17
2022-10-12T03:12:22.594Z,22.37
2022-10-12T03:15:29.061Z,24.67
2022-10-12T03:18:35.244Z,23.23
2022-10-12T03:21:41.822Z,22.43
2022-10-12T03:24:50.507Z,22.13
2022-10-12T03:27:56.962Z,19.63
2022-10-12T03:31:03.269Z,20.87
2022-10-12T03:34:10.041Z,22.50
2022-10-12T03:37:15.656Z,22.17
2022-10-12T03:40:25.190Z,23.20
2022-10-12T03:43:30.865Z,21.93
2022-10-12T03:46:37.537Z,22.77
2022-10-12T03:49:43.122Z,21.17
2022-10-12T03:52:49.593Z,23.57
2022-10-12T03:55:57.939Z,21.63
2022-10-12T03:59:06.359Z,21.23
2022-10-12T04:02:16.656Z,23.13
2022-10-12T04:05:23.854Z,23.87
2022-10-12T04:08:30.817Z,23.43
2022-10-12T04:11:40.060Z,24.80
2022-10-12T04:14:45.672Z,23.80
2022-10-12T04:17:53.028Z,23.57
2022-10-12T04:20:58.713Z,23.97
2022-10-12T04:24:07.228Z,23.87
2022-10-12T04:27:15.643Z,23.93
2022-10-12T04:30:22.143Z,23.53
2022-10-12T04:33:27.897Z,22.83
2022-10-12T04:36:34.407Z,21.10
2022-10-12T04:39:40.247Z,20.87
2022-10-12T04:42:49.852Z,23.57
2022-10-12T04:45:59.464Z,22.27
2022-10-12T04:49:06.905Z,23.07
2022-10-12T04:52:12.802Z,23.87
2022-10-12T04:55:19.759Z,25.77
2022-10-12T04:58:28.146Z,23.60
2022-10-12T05:01:35.055Z,23.70
2022-10-12T05:04:40.713Z,23.30
2022-10-12T05:07:47.446Z,21.77
2022-10-12T05:10:53.640Z,20.17
2022-10-12T05:14:03.337Z,19.73
2022-10-12T05:17:08.999Z,21.47
2022-10-12T05:20:15.504Z,21.67
2022-10-12T05:23:21.611Z,19.63
2022-10-12T05:26:28.816Z,20.77
2022-10-12T05:29:37.352Z,20.97
2022-10-12T05:32:44.637Z,22.30
2022-10-12T05:35:56.271Z,21.60
2022-10-12T05:39:03.401Z,21.70
2022-10-12T05:42:09.325Z,19.27
2022-10-12T05:45:18.707Z,20.47
2022-10-12T05:48:24.338Z,19.83
2022-10-12T05:51:30.852Z,20.50
2022-10-12T05:54:36.628Z,20.77
2022-10-12T05:57:43.162Z,20.43
2022-10-12T06:00:52.673Z,21.03
2022-10-12T06:03:59.417Z,21.17
2022-10-12T06:07:08.367Z,20.43
2022-10-12T06:10:14.890Z,19.67
2022-10-12T06:13:21.162Z,18.70
2022-10-12T06:16:30.670Z,18.37
2022-10-12T06:19:36.394Z,18.63
2022-10-12T06:22:42.816Z,18.97
2022-10-12T06:25:49.320Z,17.20
2022-10-12T06:28:55.828Z,17.97
2022-10-12T06:32:04.322Z,18.47
2022-10-12T06:35:12.106Z,16.97
2022-10-12T06:38:17.887Z,16.17
2022-10-12T06:41:24.883Z,17.77
2022-10-12T06:44:30.616Z,17.27
2022-10-12T06:47:39.874Z,19.13
2022-10-12T06:50:45.588Z,21.33
2022-10-12T06:53:52.115Z,20.80
2022-10-12T06:56:58.821Z,18.47
2022-10-12T07:00:07.609Z,17.30
2022-10-12T07:03:17.886Z,18.57
2022-10-12T07:06:24.330Z,18.57
2022-10-12T07:09:30.021Z,15.60
2022-10-12T07:12:39.236Z,15.27
2022-10-12T07:15:45.341Z,16.13
2022-10-12T07:18:54.707Z,14.87
2022-10-12T07:22:00.420Z,15.43
2022-10-12T07:25:10.844Z,15.77
2022-10-12T07:28:16.848Z,14.80
2022-10-12T07:31:23.378Z,14.90
2022-10-12T07:34:32.753Z,15.80
2022-10-12T07:37:41.974Z,16.30
2022-10-12T07:40:49.115Z,14.30
2022-10-12T07:43:58.487Z,14.73
2022-10-12T07:47:04.611Z,14.50
2022-10-12T07:50:14.807Z,13.47
2022-10-12T07:53:20.515Z,13.00
2022-10-12T07:56:27.029Z,12.63
2022-10-12T07:59:32.994Z,11.40
2022-10-12T08:02:39.614Z,11.57
2022-10-12T08:05:50.837Z,11.87
2022-10-12T08:08:58.022Z,10.03
2022-10-12T08:12:03.988Z,9.77
2022-10-12T08:15:11.702Z,10.30
2022-10-12T08:18:17.339Z,11.23
2022-10-12T08:21:26.577Z,11.07
2022-10-12T08:24:32.486Z,11.30
2022-10-12T08:27:39.689Z,10.43
2022-10-12T08:30:45.604Z,9.07
2022-10-12T08:33:52.038Z,9.57
2022-10-12T08:37:01.171Z,8.53
2022-10-12T08:40:10.202Z,8.40
2022-10-12T08:43:23.274Z,8.20
2022-10-12T08:46:31.442Z,7.87
2022-10-12T08:49:40.153Z,7.20
2022-10-12T08:52:54.364Z,8.03
2022-10-12T08:56:03.311Z,5.83
2022-10-12T08:59:15.104Z,5.70
2022-10-12T09:02:42.099Z,5.13
2022-10-12T09:05:56.367Z,5.27
2022-10-12T09:09:16.818Z,3.80
2022-10-12T09:12:41.600Z,3.77
2022-10-12T09:15:54.578Z,2.90
2022-10-12T09:19:06.350Z,3.07
2022-10-12T09:22:21.358Z,2.60
2022-10-12T09:25:31.961Z,3.03
2022-10-12T09:28:42.213Z,3.23
2022-10-12T09:32:06.227Z,4.00
2022-10-12T09:35:16.216Z,3.23
2022-10-12T09:38:24.628Z,2.70
2022-10-12T09:41:37.316Z,3.00
2022-10-12T09:44:47.278Z,3.20
2022-10-12T09:48:16.504Z,3.27
2022-10-12T09:51:23.093Z,2.83
2022-10-12T09:54:31.071Z,2.63
2022-10-12T09:57:46.931Z,2.03
2022-10-12T10:01:16.619Z,1.90
2022-10-12T10:04:27.472Z,2.37
2022-10-12T10:07:35.297Z,2.73
2022-10-12T10:10:51.543Z,2.40
2022-10-12T10:14:03.348Z,1.97
2022-10-12T10:17:19.209Z,2.33
2022-10-12T10:20:32.427Z,3.10
2022-10-12T10:23:42.731Z,2.40
2022-10-12T10:26:56.776Z,2.43
2022-10-12T10:30:34.985Z,2.83
2022-10-12T10:33:43.269Z,2.20
2022-10-12T10:36:52.020Z,2.70
2022-10-12T10:40:00.081Z,2.57
2022-10-12T10:43:19.760Z,2.50
2022-10-12T10:46:31.292Z,2.00
2022-10-12T10:49:43.321Z,2.20
2022-10-12T10:52:57.857Z,2.43
2022-10-12T10:56:08.729Z,2.33
2022-10-12T10:59:19.919Z,2.40
2022-10-12T11:02:41.356Z,1.93
2022-10-12T11:05:51.400Z,2.40
2022-10-12T11:09:06.884Z,2.00
2022-10-12T11:12:17.556Z,2.23
2022-10-12T11:15:28.912Z,2.13
2022-10-12T11:18:41.632Z,2.83
2022-10-12T11:21:53.516Z,4.17
2022-10-12T11:25:12.148Z,3.50
2022-10-12T11:28:19.562Z,3.97
2022-10-12T11:31:30.081Z,3.57
2022-10-12T11:34:46.551Z,3.10
2022-10-12T11:37:56.993Z,3.83
2022-10-12T11:44:44.107Z,2.37
2022-10-12T11:47:53.286Z,2.10
2022-10-12T11:51:04.377Z,2.20
2022-10-12T11:54:23.819Z,2.47
2022-10-12T11:57:34.305Z,2.40
2022-10-12T12:00:51.708Z,2.00
2022-10-12T12:04:42.804Z,2.10
2022-10-12T12:07:56.945Z,2.20
2022-10-12T12:11:21.714Z,1.47
2022-10-12T12:14:49.143Z,2.30
2022-10-12T12:18:15.926Z,2.30
2022-10-12T12:21:22.455Z,2.30
2022-10-12T12:24:30.886Z,1.80
2022-10-12T12:27:40.786Z,1.73
2022-10-12T12:30:58.409Z,2.40
2022-10-12T12:34:10.159Z,2.10
2022-10-12T12:37:16.023Z,1.67
2022-10-12T12:40:28.331Z,2.10
2022-10-12T12:43:54.253Z,2.47
2022-10-12T12:50:47.629Z,1.90
2022-10-12T12:53:59.301Z,2.10
2022-10-12T12:57:38.711Z,1.70
2022-10-12T13:00:55.299Z,2.07
2022-10-12T13:04:23.812Z,1.93
2022-10-12T13:08:07.122Z,1.80
2022-10-12T13:11:53.895Z,1.90
2022-10-12T13:15:30.132Z,1.70
2022-10-12T13:18:51.625Z,1.90
2022-10-12T13:21:59.710Z,1.97
2022-10-12T13:25:10.215Z,1.60
2022-10-12T13:28:22.092Z,2.00
2022-10-12T13:31:35.637Z,1.77
2022-10-12T13:34:50.025Z,1.93
2022-10-12T13:38:06.728Z,1.80
2022-10-12T13:41:16.342Z,1.63
2022-10-12T13:44:26.490Z,1.60
2022-10-12T13:47:35.430Z,1.60
2022-10-12T13:50:53.932Z,1.90
2022-10-12T13:54:00.846Z,1.47
2022-10-12T13:57:17.185Z,1.80
2022-10-12T14:00:26.201Z,2.10
2022-10-12T14:03:40.340Z,1.93
2022-10-12T14:06:58.528Z,1.80
2022-10-12T14:10:08.839Z,2.03
2022-10-12T14:13:17.995Z,1.90
2022-10-12T14:16:24.184Z,1.57
2022-10-12T14:19:45.164Z,1.60
2022-10-12T14:22:53.696Z,1.80
2022-10-12T14:26:00.594Z,1.77
2022-10-12T14:29:30.243Z,1.90
2022-10-12T14:32:45.199Z,1.80
2022-10-12T14:35:52.171Z,2.00
2022-10-12T14:39:16.243Z,2.23
2022-10-12T14:42:23.810Z,1.90
2022-10-12T14:45:30.316Z,2.00
2022-10-12T14:48:35.990Z,1.93
2022-10-12T14:51:42.463Z,2.03
2022-10-12T14:54:53.618Z,2.47
2022-10-12T14:58:00.302Z,2.30
2022-10-12T15:01:08.164Z,2.90
2022-10-12T15:04:16.316Z,2.40
2022-10-12T15:07:24.799Z,1.90
2022-10-12T15:10:34.071Z,2.57
2022-10-12T15:13:39.680Z,1.83
2022-10-12T15:16:46.193Z,2.20
2022-10-12T15:19:53.610Z,2.10
2022-10-12T15:23:00.583Z,1.80
2022-10-12T15:26:15.000Z,1.97
2022-10-12T15:29:21.685Z,2.60
2022-10-12T15:32:27.297Z,2.70
2022-10-12T15:35:35.988Z,2.50
2022-10-12T15:38:41.568Z,2.40
2022-10-12T15:41:51.005Z,2.23
2022-10-12T15:44:56.579Z,2.10
2022-10-12T15:48:06.089Z,2.53
2022-10-12T15:51:19.983Z,2.63
2022-10-12T15:54:26.533Z,3.10
2022-10-12T15:57:35.160Z,2.63
2022-10-12T16:00:41.783Z,2.67
2022-10-12T16:03:48.399Z,2.50
2022-10-12T16:06:55.004Z,2.90
2022-10-12T16:10:00.601Z,4.83
2022-10-12T16:13:14.266Z,3.63
2022-10-12T16:16:20.808Z,3.00
2022-10-12T16:19:27.395Z,4.40
2022-10-12T16:22:33.297Z,3.73
2022-10-12T16:25:39.898Z,3.73
2022-10-12T16:28:48.330Z,3.60
2022-10-12T16:31:55.112Z,4.60
2022-10-12T16:35:00.890Z,3.77
2022-10-12T16:38:09.437Z,3.70
2022-10-12T16:41:17.063Z,4.67
2022-10-12T16:44:26.361Z,3.80
2022-10-12T16:47:32.065Z,4.70
2022-10-12T16:50:40.942Z,4.03
2022-10-12T16:53:46.606Z,4.17
2022-10-12T16:56:53.070Z,4.33
2022-10-12T17:00:03.281Z,4.77
2022-10-12T17:03:14.070Z,5.73
2022-10-12T17:06:19.828Z,5.70
2022-10-12T17:09:27.698Z,5.87
2022-10-12T17:12:33.319Z,6.30
2022-10-12T17:15:45.440Z,5.50
2022-10-12T17:18:54.496Z,5.57
2022-10-12T17:22:06.727Z,5.77
2022-10-12T17:25:12.578Z,5.90
2022-10-12T17:28:19.150Z,6.20
2022-10-12T17:31:28.873Z,6.20
2022-10-12T17:34:37.755Z,6.90
2022-10-12T17:37:43.968Z,7.63
2022-10-12T17:40:51.915Z,9.17
2022-10-12T17:43:57.878Z,10.30
2022-10-12T17:47:07.901Z,10.23
2022-10-12T17:50:13.476Z,8.80
2022-10-12T17:53:20.031Z,8.17
2022-10-12T17:56:26.506Z,7.80
2022-10-12T17:59:33.034Z,8.00
2022-10-12T18:02:41.577Z,7.57
2022-10-12T18:05:48.288Z,8.47
2022-10-12T18:08:56.596Z,7.47
2022-10-12T18:12:03.224Z,7.90
2022-10-12T18:15:10.315Z,7.23
2022-10-12T18:18:19.780Z,8.53
2022-10-12T18:21:27.755Z,9.40
2022-10-12T18:24:34.236Z,9.40
2022-10-12T18:27:40.113Z,9.83
2022-10-12T18:30:50.735Z,11.63
2022-10-12T18:33:59.984Z,14.20
2022-10-12T18:37:09.056Z,12.70
2022-10-12T18:40:15.118Z,14.33
2022-10-12T18:43:21.680Z,18.83
2022-10-12T18:46:29.624Z,17.80
2022-10-12T18:49:38.838Z,14.87
2022-10-12T18:52:44.391Z,14.27
2022-10-12T18:55:50.877Z,12.63
2022-10-12T18:58:57.065Z,10.67
2022-10-12T19:02:03.509Z,11.47
2022-10-12T19:05:12.526Z,10.43
2022-10-12T19:08:19.012Z,11.43
2022-10-12T19:11:26.535Z,11.33
2022-10-12T19:14:33.186Z,11.00
2022-10-12T19:17:38.856Z,12.37
2022-10-12T19:20:48.149Z,11.20
2022-10-12T19:23:54.355Z,12.70
2022-10-12T19:27:00.810Z,11.43
2022-10-12T19:30:09.310Z,12.60
2022-10-12T19:33:15.797Z,12.83
2022-10-12T19:36:24.479Z,11.93
2022-10-12T19:39:32.270Z,11.77
2022-10-12T19:42:37.883Z,11.83
2022-10-12T19:45:45.186Z,10.83
2022-10-12T19:48:52.922Z,10.80
2022-10-12T19:52:03.654Z,10.87
2022-10-12T19:55:10.533Z,10.87
2022-10-12T19:58:16.993Z,9.67
2022-10-12T20:01:25.261Z,9.60
2022-10-12T20:04:31.724Z,9.37
2022-10-12T20:07:40.354Z,10.10
2022-10-12T20:10:47.011Z,9.77
2022-10-12T20:13:53.380Z,9.83
2022-10-12T20:17:00.127Z,10.10
2022-10-12T20:20:09.198Z,9.67
2022-10-12T20:23:19.188Z,9.60
2022-10-12T20:26:26.927Z,9.50
2022-10-12T20:29:33.374Z,9.93
2022-10-12T20:32:38.987Z,9.53
2022-10-12T20:35:50.034Z,10.73
2022-10-12T20:39:00.108Z,9.77
2022-10-12T20:42:08.463Z,11.53
2022-10-12T20:45:14.524Z,12.00
2022-10-12T20:48:21.032Z,12.07
2022-10-12T20:51:28.366Z,12.60
2022-10-12T20:54:38.709Z,12.73
2022-10-12T20:57:44.292Z,14.90
2022-10-12T21:00:50.800Z,18.07
2022-10-12T21:03:57.364Z,18.53
2022-10-12T21:07:03.803Z,19.90
2022-10-12T21:10:13.077Z,21.90
2022-10-12T21:13:19.535Z,20.23
2022-10-12T21:16:25.515Z,23.83
2022-10-12T21:19:32.089Z,20.87
2022-10-12T21:22:37.950Z,19.63
2022-10-12T21:25:47.258Z,19.37
2022-10-12T21:28:53.698Z,19.53
2022-10-12T21:32:00.261Z,21.13
2022-10-12T21:35:08.690Z,22.13
2022-10-12T21:38:17.676Z,18.83
2022-10-12T21:41:27.940Z,18.73
2022-10-12T21:44:34.694Z,17.23
2022-10-12T21:47:40.286Z,16.70
2022-10-12T21:50:46.806Z,16.77
2022-10-12T21:53:53.434Z,17.97
2022-10-12T21:57:03.819Z,17.87
2022-10-12T22:00:13.422Z,16.53
2022-10-12T22:03:20.042Z,18.03
2022-10-12T22:06:27.395Z,17.53
2022-10-12T22:09:33.939Z,16.63
2022-10-12T22:12:42.745Z,16.50
2022-10-12T22:15:49.233Z,16.30
2022-10-12T22:18:54.833Z,16.17
2022-10-12T22:22:06.274Z,17.43
2022-10-12T22:25:12.127Z,16.43
2022-10-12T22:28:21.385Z,16.17
2022-10-12T22:31:27.812Z,15.70
2022-10-12T22:34:34.470Z,14.50
2022-10-12T22:37:40.048Z,14.70
2022-10-12T22:40:46.602Z,16.20
2022-10-12T22:43:57.557Z,15.00
2022-10-12T22:47:04.002Z,14.30
2022-10-12T22:50:10.591Z,14.27
2022-10-12T22:53:18.513Z,12.90
2022-10-12T22:56:24.177Z,13.17
2022-10-12T22:59:33.530Z,13.90
2022-10-12T23:02:39.446Z,14.87
2022-10-12T23:05:51.458Z,13.53
2022-10-12T23:08:57.273Z,14.93
2022-10-12T23:12:04.163Z,14.13
2022-10-12T23:15:13.900Z,14.53
2022-10-12T23:18:20.763Z,15.07
2022-10-12T23:21:26.705Z,15.33
2022-10-12T23:24:33.190Z,14.57
2022-10-12T23:27:40.001Z,15.73
2022-10-12T23:30:49.203Z,14.37
2022-10-12T23:33:58.116Z,14.07
2022-10-12T23:37:06.254Z,13.83
2022-10-12T23:40:13.433Z,16.60
2022-10-12T23:43:19.970Z,14.93
2022-10-12T23:46:28.361Z,16.10
2022-10-12T23:49:37.120Z,14.50
2022-10-12T23:52:45.174Z,14.37
2022-10-12T23:55:51.769Z,16.17
2022-10-12T23:58:57.444Z,16.00
